Time;durP1;ratioP1;P1;durP2;ratioP2;P2;SDS_P1;SDS_P2;PMS_P1;PMS_P2;Temp;Humidity;BMP_temperature;BMP_pressure;BME280_temperature;BME280_humidity;BME280_pressure;Samples;Min_cycle;Max_cycle;Signal;HPM_P1;HPM_P2
2023/04/18 00:01:28;;;;;;;16.00;6.90;;;;;;;6.81;100.00;102235.16;5075505;28;20442;-66
2023/04/18 00:03:55;;;;;;;15.13;7.00;;;;;;;6.86;100.00;102237.13;5075366;28;20469;-66
2023/04/18 00:06:24;;;;;;;16.40;6.83;;;;;;;6.73;100.00;102238.19;5075441;28;20449;-66
2023/04/18 00:08:51;;;;;;;19.40;7.57;;;;;;;6.74;100.00;102235.28;5075110;28;20574;-66
2023/04/18 00:11:18;;;;;;;18.67;8.57;;;;;;;6.72;100.00;102229.28;5075250;28;20577;-66
2023/04/18 00:13:46;;;;;;;16.50;7.10;;;;;;;6.79;100.00;102243.47;5075148;28;20485;-66
2023/04/18 00:16:13;;;;;;;17.03;7.70;;;;;;;6.86;100.00;102239.81;5075178;28;20484;-66
2023/04/18 00:18:39;;;;;;;21.13;7.87;;;;;;;6.92;100.00;102245.09;5074875;28;20434;-66
2023/04/18 00:21:07;;;;;;;21.93;7.67;;;;;;;6.96;100.00;102232.81;5075138;28;20467;-66
2023/04/18 00:23:36;;;;;;;16.33;7.53;;;;;;;6.97;100.00;102239.00;5075060;28;20967;-66
2023/04/18 00:26:02;;;;;;;13.97;6.43;;;;;;;7.01;100.00;102232.09;5075067;28;20437;-66
2023/04/18 00:28:29;;;;;;;18.83;7.67;;;;;;;7.04;100.00;102239.72;5075017;28;20477;-66
2023/04/18 00:30:56;;;;;;;16.03;6.67;;;;;;;7.07;100.00;102239.22;5074601;28;20568;-66
2023/04/18 00:33:22;;;;;;;16.90;6.60;;;;;;;7.06;100.00;102242.97;5074875;28;20516;-66
2023/04/18 00:35:49;;;;;;;15.27;6.40;;;;;;;7.07;100.00;102241.91;5074827;28;20975;-66
2023/04/18 00:38:16;;;;;;;19.70;7.67;;;;;;;7.13;100.00;102246.38;5074540;28;20543;-66
2023/04/18 00:40:44;;;;;;;24.57;7.20;;;;;;;7.13;100.00;102245.53;5074743;28;20465;-66
2023/04/18 00:43:12;;;;;;;16.60;6.87;;;;;;;7.05;100.00;102244.03;5074594;28;20465;-66
2023/04/18 00:45:39;;;;;;;20.60;8.77;;;;;;;7.08;100.00;102241.69;5074708;28;20612;-66
2023/04/18 00:48:06;;;;;;;18.10;7.97;;;;;;;7.04;100.00;102245.91;5074276;28;20454;-71
2023/04/18 00:50:33;;;;;;;14.73;7.20;;;;;;;7.08;100.00;102243.56;5074176;28;20445;-66
2023/04/18 00:52:59;;;;;;;19.43;7.07;;;;;;;7.09;100.00;102247.91;5074138;28;20499;-66
2023/04/18 00:55:26;;;;;;;17.43;7.57;;;;;;;7.07;100.00;102245.44;5074462;28;20528;-66
2023/04/18 00:57:54;;;;;;;20.47;8.40;;;;;;;7.02;100.00;102247.19;5074078;28;20536;-66
2023/04/18 01:00:21;;;;;;;19.67;7.10;;;;;;;7.00;100.00;102244.75;5074064;28;20994;-65
2023/04/18 01:02:48;;;;;;;17.23;6.70;;;;;;;6.96;100.00;102242.75;5073907;28;20461;-65
2023/04/18 01:05:15;;;;;;;16.00;7.60;;;;;;;6.87;100.00;102246.88;5073906;28;20452;-65
2023/04/18 01:07:42;;;;;;;19.93;7.57;;;;;;;6.81;100.00;102240.53;5074246;28;20520;-65
2023/04/18 01:10:11;;;;;;;18.00;7.10;;;;;;;6.75;100.00;102236.09;5073459;28;20463;-66
2023/04/18 01:12:37;;;;;;;16.40;5.80;;;;;;;6.75;100.00;102233.41;5073664;28;20546;-65
2023/04/18 01:15:07;;;;;;;15.57;6.40;;;;;;;6.70;100.00;102234.09;5074064;28;20440;-65
2023/04/18 01:17:34;;;;;;;18.10;6.80;;;;;;;6.63;100.00;102235.25;5074042;28;20473;-65
2023/04/18 01:20:03;;;;;;;16.50;6.00;;;;;;;6.66;100.00;102242.88;5074211;28;20464;-65
2023/04/18 01:22:31;;;;;;;14.50;6.97;;;;;;;6.63;100.00;102236.09;5073576;28;20543;-65
2023/04/18 01:24:59;;;;;;;13.90;6.23;;;;;;;6.66;100.00;102248.28;5073878;28;20473;-65
2023/04/18 01:27:26;;;;;;;16.10;5.43;;;;;;;6.62;100.00;102245.22;5073529;28;21002;-65
2023/04/18 01:29:52;;;;;;;21.30;6.23;;;;;;;6.61;100.00;102251.66;5073803;28;20456;-65
2023/04/18 01:32:19;;;;;;;16.53;6.47;;;;;;;6.59;100.00;102251.06;5073681;28;20492;-65
2023/04/18 01:34:46;;;;;;;17.60;7.77;;;;;;;6.50;100.00;102247.06;5073451;28;20940;-66
2023/04/18 01:37:13;;;;;;;12.43;5.60;;;;;;;6.54;100.00;102246.38;5073699;28;20468;-66
2023/04/18 01:39:39;;;;;;;11.07;5.83;;;;;;;6.54;100.00;102248.25;5073630;28;20520;-66
2023/04/18 01:42:07;;;;;;;13.30;5.77;;;;;;;6.60;100.00;102251.88;5073248;28;20968;-65
2023/04/18 01:44:34;;;;;;;13.80;6.20;;;;;;;6.57;100.00;102251.31;5073442;28;20557;-65
2023/04/18 01:47:00;;;;;;;17.00;6.67;;;;;;;6.60;100.00;102241.94;5073200;28;21020;-65
2023/04/18 01:49:27;;;;;;;18.40;6.87;;;;;;;6.56;100.00;102246.97;5073457;28;20447;-65
2023/04/18 01:51:53;;;;;;;16.23;6.77;;;;;;;6.51;100.00;102241.47;5073295;28;20564;-65
2023/04/18 01:54:20;;;;;;;19.47;7.17;;;;;;;6.52;100.00;102236.91;5073469;28;20433;-66
2023/04/18 01:56:47;;;;;;;21.07;7.20;;;;;;;6.60;100.00;102238.41;5073410;28;20473;-65
2023/04/18 01:59:15;;;;;;;17.07;7.30;;;;;;;6.62;100.00;102236.31;5073387;28;20865;-65
2023/04/18 02:01:41;;;;;;;17.00;7.33;;;;;;;6.61;100.00;102238.19;5073333;28;20815;-65
2023/04/18 02:04:08;;;;;;;20.77;7.80;;;;;;;6.65;100.00;102246.63;5073461;28;20469;-65
2023/04/18 02:06:35;;;;;;;16.17;6.37;;;;;;;6.65;100.00;102243.94;5073007;28;20484;-65
2023/04/18 02:09:01;;;;;;;13.60;6.40;;;;;;;6.69;100.00;102239.72;5072957;28;20437;-65
2023/04/18 02:11:28;;;;;;;14.53;5.57;;;;;;;6.66;100.00;102234.81;5072846;28;20485;-65
2023/04/18 02:13:54;;;;;;;14.63;6.80;;;;;;;6.67;100.00;102236.44;5072805;28;21040;-65
2023/04/18 02:16:22;;;;;;;15.87;6.77;;;;;;;6.69;100.00;102240.56;5073188;28;20442;-65
2023/04/18 02:18:51;;;;;;;13.37;5.97;;;;;;;6.70;100.00;102239.50;5073109;28;20525;-65
2023/04/18 02:21:17;;;;;;;16.97;6.50;;;;;;;6.61;100.00;102238.19;5073401;28;20502;-65
2023/04/18 02:23:44;;;;;;;16.30;7.27;;;;;;;6.66;100.00;102234.81;5072962;28;20468;-65
2023/04/18 02:26:10;;;;;;;20.60;6.80;;;;;;;6.64;100.00;102224.28;5073083;28;20476;-69
2023/04/18 02:28:37;;;;;;;18.57;6.30;;;;;;;6.56;100.00;102232.69;5073127;28;20477;-68
2023/04/18 02:31:04;;;;;;;15.23;7.00;;;;;;;6.63;100.00;102232.56;5072689;28;20865;-66
2023/04/18 02:33:32;;;;;;;19.10;7.07;;;;;;;6.60;100.00;102239.25;5073084;28;20465;-66
2023/04/18 02:36:00;;;;;;;16.30;7.17;;;;;;;6.57;100.00;102234.34;5072972;28;20544;-66
2023/04/18 02:38:27;;;;;;;15.10;7.37;;;;;;;6.48;100.00;102233.03;5072948;28;20437;-66
2023/04/18 02:40:53;;;;;;;15.10;6.23;;;;;;;6.49;100.00;102234.66;5072869;28;20496;-66
2023/04/18 02:43:20;;;;;;;18.60;7.40;;;;;;;6.49;100.00;102240.06;5072812;28;20473;-66
2023/04/18 02:45:46;;;;;;;16.23;7.50;;;;;;;6.44;100.00;102239.94;5072975;28;20428;-66
2023/04/18 02:48:13;;;;;;;13.90;6.60;;;;;;;6.51;100.00;102235.28;5072925;28;20460;-66
2023/04/18 02:50:41;;;;;;;15.70;6.70;;;;;;;6.46;100.00;102243.19;5072849;28;20472;-66
2023/04/18 02:53:07;;;;;;;14.40;6.13;;;;;;;6.35;100.00;102235.94;5072357;28;21067;-66
2023/04/18 02:55:34;;;;;;;15.90;7.30;;;;;;;6.39;100.00;102243.31;5072832;28;20467;-66
2023/04/18 02:58:00;;;;;;;16.20;7.40;;;;;;;6.39;100.00;102237.13;5072766;28;20870;-66
2023/04/18 03:00:27;;;;;;;17.10;6.77;;;;;;;6.44;100.00;102245.31;5072745;28;20529;-66
2023/04/18 03:02:54;;;;;;;16.60;6.73;;;;;;;6.45;100.00;102242.38;5072653;28;20515;-66
2023/04/18 03:05:21;;;;;;;23.43;6.93;;;;;;;6.47;100.00;102240.31;5072671;28;20441;-66
2023/04/18 03:07:49;;;;;;;15.00;6.67;;;;;;;6.47;100.00;102234.91;5072620;28;20459;-66
2023/04/18 03:10:16;;;;;;;11.80;6.07;;;;;;;6.46;100.00;102249.44;5072638;28;20444;-66
2023/04/18 03:12:43;;;;;;;14.37;6.63;;;;;;;6.46;100.00;102248.59;5072464;28;20564;-67
2023/04/18 03:15:10;;;;;;;18.70;7.83;;;;;;;6.35;100.00;102257.47;5072568;28;20437;-66
2023/04/18 03:17:37;;;;;;;19.37;7.43;;;;;;;6.39;100.00;102253.28;5072437;28;20440;-67
2023/04/18 03:20:04;;;;;;;18.47;7.40;;;;;;;6.39;100.00;102250.59;5072536;28;20469;-67
2023/04/18 03:22:31;;;;;;;17.07;7.90;;;;;;;6.38;100.00;102252.47;5072201;28;20463;-66
2023/04/18 03:24:59;;;;;;;15.23;6.40;;;;;;;6.41;100.00;102248.47;5072480;28;20450;-66
2023/04/18 03:27:26;;;;;;;15.50;7.10;;;;;;;6.46;100.00;102248.59;5072441;28;20445;-66
2023/04/18 03:29:52;;;;;;;13.40;7.07;;;;;;;6.51;100.00;102252.25;5072503;28;20444;-66
2023/04/18 03:32:19;;;;;;;16.17;7.00;;;;;;;6.54;100.00;102261.72;5072028;28;21046;-66
2023/04/18 03:34:46;;;;;;;14.70;6.53;;;;;;;6.60;100.00;102254.56;5075836;28;20449;-66
2023/04/18 03:37:12;;;;;;;13.20;6.43;;;;;;;6.62;100.00;102257.88;5076006;28;20443;-66
2023/04/18 03:39:39;;;;;;;15.10;7.77;;;;;;;6.65;100.00;102260.91;5075633;28;21015;-66
2023/04/18 03:42:07;;;;;;;14.50;6.63;;;;;;;6.55;100.00;102257.97;5075488;28;20980;-66
2023/04/18 03:44:34;;;;;;;17.47;6.77;;;;;;;6.56;100.00;102262.31;5075408;28;20459;-66
2023/04/18 03:47:00;;;;;;;14.67;6.13;;;;;;;6.53;100.00;102260.06;5075822;28;20448;-66
2023/04/18 03:49:27;;;;;;;18.10;7.27;;;;;;;6.53;100.00;102260.06;5075758;28;20445;-66
2023/04/18 03:51:54;;;;;;;14.00;6.80;;;;;;;6.59;100.00;102259.13;5075174;28;21090;-66
2023/04/18 03:54:20;;;;;;;16.87;7.03;;;;;;;6.59;100.00;102261.81;5075724;28;20444;-66
2023/04/18 03:56:47;;;;;;;18.27;7.20;;;;;;;6.55;100.00;102264.19;5075564;28;20437;-66
2023/04/18 03:59:15;;;;;;;16.83;7.53;;;;;;;6.53;100.00;102265.47;5075570;28;20525;-66
2023/04/18 04:01:42;;;;;;;16.10;6.83;;;;;;;6.50;100.00;102263.22;5075220;28;20936;-66
2023/04/18 04:04:10;;;;;;;15.50;6.70;;;;;;;6.49;100.00;102269.66;5075468;28;20489;-66
2023/04/18 04:06:37;;;;;;;15.07;6.43;;;;;;;6.51;100.00;102264.88;5075486;28;20488;-66
2023/04/18 04:09:03;;;;;;;14.73;7.37;;;;;;;6.50;100.00;102271.31;5076827;28;20441;-66
2023/04/18 04:11:30;;;;;;;13.00;6.83;;;;;;;6.55;100.00;102269.56;5075274;28;20983;-66
2023/04/18 04:13:57;;;;;;;14.20;5.70;;;;;;;6.53;100.00;102268.97;5074968;28;20469;-66
2023/04/18 04:16:25;;;;;;;18.40;8.67;;;;;;;6.49;100.00;102272.34;5075009;28;20982;-66
2023/04/18 04:18:51;;;;;;;15.20;7.27;;;;;;;6.49;100.00;102275.06;5074866;28;21023;-66
2023/04/18 04:21:18;;;;;;;18.30;7.60;;;;;;;6.55;100.00;102279.50;5075288;28;20472;-66
2023/04/18 04:23:45;;;;;;;15.77;7.57;;;;;;;6.58;100.00;102279.03;5075310;28;20544;-66
2023/04/18 04:26:13;;;;;;;19.30;8.07;;;;;;;6.61;100.00;102285.84;5075132;28;20441;-66
2023/04/18 04:28:40;;;;;;;15.47;6.97;;;;;;;6.65;100.00;102290.53;5074970;28;20445;-66
2023/04/18 04:31:07;;;;;;;12.63;6.13;;;;;;;6.64;100.00;102282.66;5074628;28;20448;-66
2023/04/18 04:33:37;;;;;;;18.57;8.67;;;;;;;6.69;100.00;102294.41;5074766;28;20564;-66
2023/04/18 04:36:05;;;;;;;18.77;7.73;;;;;;;6.70;100.00;102290.66;5074644;28;20429;-66
2023/04/18 04:38:32;;;;;;;15.67;6.83;;;;;;;6.67;100.00;102291.09;5075123;28;20441;-66
2023/04/18 04:40:58;;;;;;;20.43;7.63;;;;;;;6.69;100.00;102291.72;5074891;28;20447;-66
2023/04/18 04:43:27;;;;;;;18.27;8.53;;;;;;;6.73;100.00;102292.03;5074543;28;20881;-66
2023/04/18 04:45:54;;;;;;;17.30;7.50;;;;;;;6.80;100.00;102293.56;5073670;28;20479;-66
2023/04/18 04:48:20;;;;;;;15.90;6.97;;;;;;;6.86;100.00;102291.00;5074356;28;20460;-66
2023/04/18 04:50:54;;;;;;;13.83;6.33;;;;;;;6.88;100.00;102297.00;5074411;28;20485;-67
2023/04/18 04:53:21;;;;;;;24.23;9.17;;;;;;;6.84;100.00;102302.00;5074425;28;20857;-66
2023/04/18 04:55:47;;;;;;;19.23;7.60;;;;;;;6.81;100.00;102300.59;5074797;28;20452;-66
2023/04/18 04:58:14;;;;;;;29.97;8.70;;;;;;;6.82;100.00;102299.56;5074422;28;20532;-66
2023/04/18 05:00:41;;;;;;;14.57;7.67;;;;;;;6.80;100.00;102304.34;5074105;28;20975;-66
2023/04/18 05:03:08;;;;;;;18.00;7.27;;;;;;;6.88;100.00;102302.38;5074195;28;21000;-67
2023/04/18 05:05:34;;;;;;;21.50;9.63;;;;;;;6.88;100.00;102305.06;5073951;28;20928;-66
2023/04/18 05:08:02;;;;;;;18.47;7.93;;;;;;;6.96;100.00;102304.72;5074128;28;20433;-66
2023/04/18 05:10:29;;;;;;;16.03;7.70;;;;;;;7.10;100.00;102305.31;5074135;28;20437;-66
2023/04/18 05:12:55;;;;;;;18.90;7.73;;;;;;;7.14;100.00;102306.47;5073979;28;20485;-66
2023/04/18 05:15:23;;;;;;;18.40;8.23;;;;;;;7.08;100.00;102294.75;5074087;28;20446;-66
2023/04/18 05:17:50;;;;;;;12.33;6.60;;;;;;;7.04;100.00;102304.38;5073981;28;20812;-67
2023/04/18 05:20:17;;;;;;;15.23;6.70;;;;;;;7.03;100.00;102303.53;5073986;28;20922;-66
2023/04/18 05:22:43;;;;;;;16.83;7.73;;;;;;;7.00;100.00;102313.97;5073922;28;20544;-66
2023/04/18 05:25:12;;;;;;;14.87;6.57;;;;;;;6.85;100.00;102311.72;5073910;28;20445;-67
2023/04/18 05:27:39;;;;;;;13.57;6.87;;;;;;;6.73;100.00;102309.03;5073982;28;20445;-66
2023/04/18 05:30:07;;;;;;;14.33;7.63;;;;;;;6.72;100.00;102307.38;5073425;28;20439;-66
2023/04/18 05:32:34;;;;;;;17.33;7.97;;;;;;;6.74;100.00;102307.97;5073475;28;20480;-66
2023/04/18 05:35:00;;;;;;;15.20;7.47;;;;;;;6.75;100.00;102304.22;5073434;28;20468;-66
2023/04/18 05:37:27;;;;;;;18.90;7.23;;;;;;;6.77;100.00;102307.53;5073368;28;20441;-66
2023/04/18 05:39:53;;;;;;;12.63;5.77;;;;;;;6.83;100.00;102303.91;5073686;28;20441;-66
2023/04/18 05:42:21;;;;;;;14.40;6.47;;;;;;;6.85;100.00;102303.66;5073326;28;20888;-67
2023/04/18 05:44:48;;;;;;;16.77;8.27;;;;;;;6.88;100.00;102305.88;5073513;28;20497;-66
2023/04/18 05:47:15;;;;;;;18.90;6.97;;;;;;;6.93;100.00;102310.56;5073264;28;20488;-66
2023/04/18 05:49:41;;;;;;;15.00;6.93;;;;;;;6.97;100.00;102314.44;5073216;28;20450;-66
2023/04/18 05:52:08;;;;;;;16.90;7.03;;;;;;;7.01;100.00;102310.22;5073290;28;20464;-66
2023/04/18 05:54:35;;;;;;;16.33;7.77;;;;;;;7.01;100.00;102310.22;5073500;28;20438;-66
2023/04/18 05:57:01;;;;;;;14.50;7.53;;;;;;;7.13;100.00;102319.13;5073157;28;20438;-66
2023/04/18 05:59:29;;;;;;;15.10;7.00;;;;;;;7.11;100.00;102315.84;5073329;28;20472;-69
2023/04/18 06:01:56;;;;;;;20.97;8.67;;;;;;;7.13;100.00;102318.28;5072953;28;20484;-69
2023/04/18 06:04:23;;;;;;;13.83;6.90;;;;;;;7.06;100.00;102324.63;5073012;28;21002;-70
2023/04/18 06:06:49;;;;;;;16.57;7.60;;;;;;;7.21;100.00;102321.44;5073312;28;20437;-70
2023/04/18 06:09:16;;;;;;;19.13;7.13;;;;;;;7.21;100.00;102313.34;5073263;28;20448;-67
2023/04/18 06:11:42;;;;;;;15.07;6.93;;;;;;;7.37;100.00;102321.81;5073225;28;20484;-67
2023/04/18 06:14:09;;;;;;;19.93;7.33;;;;;;;7.47;100.00;102322.81;5073128;28;20481;-67
2023/04/18 06:16:37;;;;;;;18.67;6.93;;;;;;;7.53;100.00;102323.78;5073195;28;20445;-67
2023/04/18 06:19:04;;;;;;;20.73;7.13;;;;;;;7.58;100.00;102322.00;5073048;28;20432;-66
2023/04/18 06:21:31;;;;;;;18.47;7.57;;;;;;;7.59;100.00;102322.81;5072810;28;20540;-66
2023/04/18 06:23:57;;;;;;;22.27;8.00;;;;;;;7.64;100.00;102319.41;5072998;28;20450;-66
2023/04/18 06:26:24;;;;;;;15.77;7.20;;;;;;;7.63;100.00;102323.97;5073058;28;20444;-68
2023/04/18 06:28:51;;;;;;;18.63;8.03;;;;;;;7.66;100.00;102331.59;5072789;28;20452;-66
2023/04/18 06:31:17;;;;;;;15.20;6.30;;;;;;;7.56;100.00;102329.50;5072811;28;20594;-66
2023/04/18 06:33:45;;;;;;;14.47;6.67;;;;;;;7.39;100.00;102333.16;5072941;28;20503;-66
2023/04/18 06:36:12;;;;;;;19.53;7.37;;;;;;;7.49;100.00;102328.81;5072659;28;21019;-65
2023/04/18 06:38:38;;;;;;;15.90;7.20;;;;;;;7.71;100.00;102326.31;5073054;28;20524;-65
2023/04/18 06:41:05;;;;;;;15.43;7.13;;;;;;;7.76;100.00;102336.38;5072561;28;20444;-65
2023/04/18 06:43:31;;;;;;;14.17;6.60;;;;;;;7.79;100.00;102335.88;5072425;28;20493;-66
2023/04/18 06:45:58;;;;;;;16.07;7.17;;;;;;;7.95;100.00;102332.44;5072963;28;20437;-65
2023/04/18 06:48:25;;;;;;;18.00;7.57;;;;;;;7.97;99.39;102340.28;5072701;28;20473;-66
2023/04/18 06:50:53;;;;;;;16.27;6.77;;;;;;;8.07;98.88;102332.41;5072560;28;20897;-66
2023/04/18 06:53:19;;;;;;;11.53;5.53;;;;;;;7.96;97.44;102336.78;5072545;28;20480;-66
2023/04/18 06:55:46;;;;;;;16.70;6.80;;;;;;;8.12;97.50;102332.50;5072795;28;20445;-66
2023/04/18 06:58:15;;;;;;;15.23;6.37;;;;;;;8.28;96.60;102339.00;5072481;28;20537;-66
2023/04/18 07:00:41;;;;;;;12.90;5.30;;;;;;;8.33;96.11;102339.91;5072753;28;20804;-65
2023/04/18 07:03:11;;;;;;;14.03;5.60;;;;;;;8.19;96.84;102335.88;5072677;28;20890;-66
2023/04/18 07:05:38;;;;;;;16.13;6.70;;;;;;;8.41;96.84;102344.16;5072848;28;20528;-65
2023/04/18 07:08:07;;;;;;;11.20;5.20;;;;;;;8.49;96.35;102342.91;5073362;28;20443;-65
2023/04/18 07:10:33;;;;;;;15.70;6.00;;;;;;;8.49;95.75;102337.50;5076688;28;20470;-65
2023/04/18 07:13:00;;;;;;;12.30;5.60;;;;;;;8.65;95.29;102334.00;5076347;28;20538;-66
2023/04/18 07:15:27;;;;;;;15.77;6.23;;;;;;;8.81;94.98;102330.50;5076150;28;20489;-65
2023/04/18 07:17:53;;;;;;;14.50;5.80;;;;;;;9.06;95.68;102340.06;5076618;28;20449;-66
2023/04/18 07:20:20;;;;;;;18.23;4.70;;;;;;;9.21;96.09;102343.00;5076406;28;20523;-65
2023/04/18 07:22:46;;;;;;;11.37;6.17;;;;;;;9.40;95.66;102348.13;5076224;28;20461;-66
2023/04/18 07:25:14;;;;;;;11.50;5.10;;;;;;;9.51;94.65;102349.88;5076314;28;20445;-65
2023/04/18 07:27:41;;;;;;;13.70;5.77;;;;;;;9.65;93.90;102348.47;5076268;28;20441;-65
2023/04/18 07:30:09;;;;;;;12.80;5.20;;;;;;;9.72;93.40;102349.09;5076162;28;20491;-65
2023/04/18 07:32:35;;;;;;;12.20;5.87;;;;;;;9.78;92.63;102349.97;5075945;28;20465;-65
2023/04/18 07:35:03;;;;;;;10.97;4.83;;;;;;;9.91;92.34;102337.94;5076047;28;20532;-65
2023/04/18 07:37:29;;;;;;;12.10;4.70;;;;;;;9.96;92.23;102340.69;5075994;28;20469;-65
2023/04/18 07:39:56;;;;;;;13.13;5.73;;;;;;;10.03;92.99;102344.03;5076033;28;20445;-65
2023/04/18 07:42:24;;;;;;;11.40;5.10;;;;;;;10.02;92.75;102339.69;5075873;28;20465;-65
2023/04/18 07:44:56;;;;;;;10.20;4.87;;;;;;;9.93;92.75;102341.22;5075717;28;20453;-66
2023/04/18 07:47:22;;;;;;;11.77;4.57;;;;;;;9.78;90.97;102336.44;5075551;28;20508;-66
2023/04/18 07:49:49;;;;;;;13.50;5.80;;;;;;;9.46;90.96;102344.41;5075950;28;20531;-66
2023/04/18 07:52:16;;;;;;;10.50;5.33;;;;;;;9.54;92.54;102335.88;5075336;28;20518;-68
2023/04/18 07:54:42;;;;;;;14.30;5.90;;;;;;;9.61;92.71;102336.50;5075632;28;20509;-68
2023/04/18 07:57:09;;;;;;;9.70;5.10;;;;;;;9.66;93.76;102344.69;5075703;28;20441;-65
2023/04/18 07:59:37;;;;;;;13.97;5.50;;;;;;;9.78;93.84;102339.97;5075666;28;20813;-67
2023/04/18 08:02:04;;;;;;;9.87;4.87;;;;;;;9.85;93.02;102339.78;5075123;28;20531;-65
2023/04/18 08:04:30;;;;;;;11.23;5.03;;;;;;;9.84;92.87;102346.25;5075590;28;20871;-66
2023/04/18 08:06:57;;;;;;;11.63;5.50;;;;;;;9.91;92.80;102348.75;5075507;28;20516;-65
2023/04/18 08:09:24;;;;;;;12.13;5.70;;;;;;;9.94;92.73;102343.66;5075083;28;20960;-65
2023/04/18 08:11:51;;;;;;;15.50;5.57;;;;;;;9.76;91.78;102347.50;5075339;28;20451;-65
2023/04/18 08:14:17;;;;;;;13.90;6.40;;;;;;;9.65;91.00;102340.34;5075254;28;20481;-66
2023/04/18 08:16:45;;;;;;;13.60;5.50;;;;;;;9.95;91.90;102349.91;5075263;28;20874;-65
2023/04/18 08:19:12;;;;;;;12.10;5.47;;;;;;;10.17;91.88;102349.88;5075117;28;20469;-65
2023/04/18 08:21:38;;;;;;;13.50;5.60;;;;;;;10.25;90.45;102354.88;5075211;28;20798;-65
2023/04/18 08:24:06;;;;;;;13.80;5.23;;;;;;;10.28;90.29;102357.88;5075240;28;20453;-65
2023/04/18 08:26:32;;;;;;;17.33;6.07;;;;;;;10.40;89.44;102351.47;5075072;28;20485;-65
2023/04/18 08:28:59;;;;;;;14.00;5.47;;;;;;;10.61;89.61;102343.28;5074988;28;20442;-65
2023/04/18 08:31:26;;;;;;;15.37;5.73;;;;;;;10.97;89.49;102351.69;5075068;28;20476;-65
2023/04/18 08:33:54;;;;;;;11.90;5.53;;;;;;;11.19;87.82;102348.88;5074834;28;20592;-65
2023/04/18 08:36:21;;;;;;;8.60;4.57;;;;;;;11.40;85.39;102359.88;5074915;28;20451;-65
2023/04/18 08:38:47;;;;;;;11.47;5.60;;;;;;;11.53;84.97;102356.69;5074911;28;20503;-66
2023/04/18 08:41:20;;;;;;;12.90;5.70;;;;;;;11.62;84.44;102357.81;5074809;28;20524;-66
2023/04/18 08:43:47;;;;;;;11.90;4.37;;;;;;;11.50;84.34;102351.78;5074660;28;20542;-65
2023/04/18 08:46:14;;;;;;;10.17;4.93;;;;;;;11.33;84.33;102347.34;5074659;28;20475;-65
2023/04/18 08:48:41;;;;;;;12.73;5.30;;;;;;;11.27;85.26;102345.69;5074733;28;20862;-66
2023/04/18 08:51:09;;;;;;;11.10;4.90;;;;;;;11.26;85.51;102348.66;5074706;28;20437;-65
2023/04/18 08:53:36;;;;;;;12.17;5.33;;;;;;;11.29;85.89;102348.16;5074169;28;20509;-68
2023/04/18 08:56:04;;;;;;;12.20;5.53;;;;;;;11.34;85.34;102348.97;5074541;28;20441;-66
2023/04/18 08:58:32;;;;;;;12.00;5.23;;;;;;;11.48;85.38;102352.03;5074448;28;20445;-66
2023/04/18 09:00:59;;;;;;;12.43;5.27;;;;;;;11.54;85.79;102358.31;5074377;28;20445;-66
2023/04/18 09:03:39;;;;;;;16.20;5.03;;;;;;;11.58;86.21;102364.84;5074527;28;20461;-66
2023/04/18 09:06:08;;;;;;;9.90;4.80;;;;;;;11.43;85.33;102362.06;5074419;28;20432;-66
2023/04/18 09:08:36;;;;;;;9.37;4.73;;;;;;;11.34;86.65;102353.59;5074315;28;20441;-66
2023/04/18 09:11:20;;;;;;;11.83;4.47;;;;;;;11.54;86.45;102363.72;5073951;28;20441;-66
2023/04/18 09:13:47;;;;;;;12.00;4.50;;;;;;;11.56;86.89;102367.00;5074173;28;20495;-66
2023/04/18 09:16:14;;;;;;;18.70;5.73;;;;;;;11.43;85.02;102360.16;5074175;28;20471;-66
2023/04/18 09:18:41;;;;;;;13.60;5.20;;;;;;;11.34;84.55;102367.97;5074026;28;20449;-66
2023/04/18 09:21:18;;;;;;;10.23;4.77;;;;;;;11.31;84.69;102359.53;5073650;28;20441;-66
2023/04/18 09:23:46;;;;;;;11.03;5.00;;;;;;;11.59;85.58;102361.03;5074000;28;20457;-66
2023/04/18 09:26:24;;;;;;;10.37;4.70;;;;;;;11.52;83.74;102361.28;5073971;28;20452;-67
2023/04/18 09:28:53;;;;;;;11.87;5.60;;;;;;;11.73;83.87;102362.22;5073976;28;20448;-66
2023/04/18 09:31:21;;;;;;;10.10;4.67;;;;;;;11.84;84.30;102357.66;5073604;28;20437;-66
2023/04/18 09:33:55;;;;;;;18.37;5.50;;;;;;;11.98;84.01;102355.25;5073656;28;20478;-66
2023/04/18 09:36:25;;;;;;;8.80;4.37;;;;;;;12.03;81.70;102366.13;5073871;28;20432;-66
2023/04/18 09:38:54;;;;;;;10.17;3.63;;;;;;;12.00;81.57;102366.69;5073701;28;20447;-66
2023/04/18 09:41:21;;;;;;;11.73;5.10;;;;;;;12.11;82.32;102369.16;5073894;28;20445;-66
2023/04/18 09:43:48;;;;;;;15.97;5.23;;;;;;;11.67;80.99;102365.16;5073606;28;20534;-67
2023/04/18 09:46:16;;;;;;;11.93;4.53;;;;;;;11.66;82.92;102367.06;5073647;28;20440;-66
2023/04/18 09:48:42;;;;;;;11.97;5.37;;;;;;;11.62;83.16;102374.91;5073857;28;20449;-67
2023/04/18 09:51:11;;;;;;;9.90;5.00;;;;;;;11.67;83.14;102360.53;5073664;28;20472;-67
2023/04/18 09:53:39;;;;;;;14.60;5.97;;;;;;;11.68;82.76;102362.16;5073311;28;20531;-66
2023/04/18 09:56:12;;;;;;;15.67;6.33;;;;;;;11.82;82.14;102357.94;5073473;28;20447;-66
2023/04/18 09:58:41;;;;;;;8.70;3.90;;;;;;;12.18;81.10;102352.63;5073605;28;20823;-67
2023/04/18 10:01:09;;;;;;;13.80;5.30;;;;;;;12.38;80.79;102358.06;5073411;28;20437;-67
2023/04/18 10:03:41;;;;;;;11.77;5.37;;;;;;;12.35;80.14;102361.34;5073540;28;20466;-68
2023/04/18 10:06:11;;;;;;;13.00;5.37;;;;;;;12.56;79.61;102353.22;5073585;28;20426;-68
2023/04/18 10:08:38;;;;;;;12.50;5.10;;;;;;;12.80;79.04;102362.47;5073255;28;20810;-68
2023/04/18 10:11:05;;;;;;;8.83;4.37;;;;;;;13.11;78.08;102357.00;5073255;28;20822;-67
2023/04/18 10:13:34;;;;;;;11.53;5.00;;;;;;;13.28;77.83;102351.28;5073306;28;20457;-68
2023/04/18 10:16:01;;;;;;;11.93;5.07;;;;;;;13.46;77.61;102347.16;5073165;28;20491;-67
2023/04/18 10:18:27;;;;;;;12.13;5.27;;;;;;;13.76;77.39;102348.94;5073198;28;20541;-68
2023/04/18 10:21:01;;;;;;;19.13;5.43;;;;;;;13.95;74.65;102351.88;5073086;28;20473;-68
2023/04/18 10:23:38;;;;;;;9.50;5.00;;;;;;;13.66;72.69;102354.44;5072729;28;20461;-68
2023/04/18 10:26:05;;;;;;;13.63;5.07;;;;;;;13.42;72.48;102351.53;5073070;28;20436;-68
2023/04/18 10:28:53;;;;;;;13.53;5.67;;;;;;;13.29;74.99;102351.03;5072632;28;20863;-68
2023/04/18 10:31:21;;;;;;;11.90;4.93;;;;;;;13.54;75.42;102346.59;5072646;28;20471;-69
2023/04/18 10:33:49;;;;;;;17.87;6.67;;;;;;;13.44;73.70;102346.63;5072524;28;20534;-68
2023/04/18 10:36:18;;;;;;;13.53;4.80;;;;;;;13.39;73.64;102342.00;5072602;28;20453;-69
2023/04/18 10:38:50;;;;;;;10.70;5.23;;;;;;;13.39;73.60;102339.28;5072919;28;20528;-69
2023/04/18 10:41:22;;;;;;;12.83;5.33;;;;;;;13.50;74.53;102340.06;5072974;28;20430;-69
2023/04/18 10:44:13;;;;;;;10.80;4.73;;;;;;;13.40;74.78;102332.75;5074895;28;20571;-68
2023/04/18 10:46:41;;;;;;;11.70;5.17;;;;;;;13.63;75.41;102336.75;5076815;28;20536;-68
2023/04/18 10:49:15;;;;;;;9.33;4.70;;;;;;;13.62;74.97;102340.56;5076528;28;20445;-67
2023/04/18 10:51:43;;;;;;;9.70;4.47;;;;;;;13.81;75.02;102327.13;5076697;28;20473;-67
2023/04/18 10:54:12;;;;;;;13.00;4.73;;;;;;;14.07;75.63;102336.81;5076589;28;20576;-67
2023/04/18 10:56:39;;;;;;;15.40;5.00;;;;;;;13.76;73.40;102338.88;5076760;28;20437;-68
2023/04/18 10:59:09;;;;;;;12.80;5.40;;;;;;;13.78;74.13;102339.41;5076347;28;20472;-68
2023/04/18 11:01:39;;;;;;;10.30;4.60;;;;;;;13.94;75.12;102339.34;5076507;28;20535;-67
2023/04/18 11:04:12;;;;;;;12.97;4.57;;;;;;;13.88;75.21;102339.38;5076453;28;20460;-68
2023/04/18 11:06:47;;;;;;;12.27;4.70;;;;;;;13.97;75.54;102336.06;5076609;28;20429;-68
2023/04/18 11:09:14;;;;;;;10.30;4.73;;;;;;;14.01;74.40;102340.66;5076392;28;20429;-67
2023/04/18 11:11:42;;;;;;;11.63;5.00;;;;;;;14.14;75.50;102336.50;5076156;28;20441;-68
2023/04/18 11:14:08;;;;;;;13.60;4.33;;;;;;;14.08;74.09;102334.91;5076218;28;20481;-68
2023/04/18 11:16:37;;;;;;;10.37;5.30;;;;;;;14.08;74.04;102345.81;5076291;28;20516;-68
2023/04/18 11:19:18;;;;;;;10.27;4.47;;;;;;;14.02;73.65;102342.28;5076423;28;20447;-68
2023/04/18 11:21:45;;;;;;;11.20;4.97;;;;;;;14.22;72.69;102337.84;5075832;28;20998;-68